Terminal Aerodrome Forecast
Issued by NWS Melbourne, FL

Home | Current Version | Previous Version | Text Only | Print | Product List | Glossary On
Versions: 1 2 3 4 5 6 7 8 9 10 11 12 13 14 15 16 17 18 19 20 21 22 23 24
000
FTUS42 KMLB 300500
TAFMCO
TAF
KMCO 300536Z 3006/3106 27004KT P6SM SCT250
     FM301400 29009KT P6SM SCT040 BKN250
     FM301600 30012G19KT P6SM BKN040
     FM302100 32013G20KT P6SM SCT040 BKN250
     FM310100 35009KT P6SM SCT250=

USA.gov is the U.S. government's official web portal to all federal, state and local government web resources and services.